Aérodrome :
LOGIN :

S'inscrire | Disclaimer

   EN    FR    IT 

 










Légende :    VFR   VFR Marginal   IFR   IFR Intensif   IFR Très Intensif
Visi : 
Plafond : 
>= 8 km
>= 3000ft
5 à 8 km
1000 à 3000 ft
1500m à 5 km
500 à 1000 ft
800 à 1500m
200 à 500 ft
< 800m
< 200 ft
Symboles :   Orages  Brouillard  Fortes neiges  Fortes précipitations  Vent > 20 kt
SIGMETs :   Divers  Orages  Givrage  Turbulence  Onde Orograph.  Cendres Volcan.







- Altitude de l'aérodrome : 79 ft
- Code IATA : NSY


LICZ - Sigonella (Mil) Catania

DERNIER METAR :
  • 281055Z 10006KT CAVOK 42/16 Q1010 RMK SCT SCT200 VIS MIN 9999 WIND THR28 02003KT WIND THR10 36004KT A2985 BLU

METARs EXPIRÉS :
  • 280955Z 07008KT 9999 FEW030 SCT120 39/15 Q1010 RMK SCT VIS MIN 9999 WIND THR28 07008KT WIND THR10 07008KT A2985 BLU
  • 280855Z 09010KT 9999 SCT100 37/15 Q1010 RMK BKN BKN150 VIS MIN 9999 WIND THR28 08010KT WIND THR10 09010KT A2985 BLU

TAF TAF LICZ
Valide du 28 à 12h jusqu'au 28 à 21h UTC


281100Z 2812/2821 09015KT 9999 FEW030 SCT110
PROB30
TEMPO 2812/2816 8000 SHRA OR TSRA FEW025CB
Pas de NOTAMs connus pour ce terrain.



MET'MAP, la Météo Aéronautique d'un coup d'oeil ! - Copyright ORBIFLY Décembre 2007 - Disclaimer

ORBIFLY MET'MAP TEAM :

Programmation & Développement : Alexandra Zaïnal
Conception & Développement : Baudouin d'Aumeries
Co-Programmation & Développement : Marc-Olivier Méhu
Soutien technique & logistique : Manuel Goepfert

Contact : metmap@orbifly.com




SOURCES & CREDITS :

   NOAA